sensor_id;sensor_type;location;lat;lon;timestamp;pressure;altitude;pressure_sealevel;temperature;humidity
44144;BME280;68165;51.920;4.492;2023-04-07T00:02:07;67078.81;;;11.02;100.00
44144;BME280;68165;51.920;4.492;2023-04-07T00:04:32;67087.75;;;11.11;100.00
44144;BME280;68165;51.920;4.492;2023-04-07T00:06:58;67096.69;;;11.19;100.00
44144;BME280;68165;51.920;4.492;2023-04-07T00:09:23;67095.56;;;11.18;100.00
44144;BME280;68165;51.920;4.492;2023-04-07T00:11:48;67088.13;;;11.09;100.00
44144;BME280;68165;51.920;4.492;2023-04-07T00:14:14;67098.34;;;11.20;100.00
44144;BME280;68165;51.920;4.492;2023-04-07T00:16:39;67086.47;;;11.07;100.00
44144;BME280;68165;51.920;4.492;2023-04-07T00:19:05;67099.44;;;11.21;100.00
44144;BME280;68165;51.920;4.492;2023-04-07T00:21:30;67099.31;;;11.19;100.00
44144;BME280;68165;51.920;4.492;2023-04-07T00:23:56;67103.56;;;11.20;100.00
44144;BME280;68165;51.920;4.492;2023-04-07T00:26:21;67086.06;;;11.09;100.00
44144;BME280;68165;51.920;4.492;2023-04-07T00:28:47;67081.03;;;11.04;100.00
44144;BME280;68165;51.920;4.492;2023-04-07T00:31:12;67072.09;;;10.96;100.00
44144;BME280;68165;51.920;4.492;2023-04-07T00:33:38;67054.25;;;10.80;100.00
44144;BME280;68165;51.920;4.492;2023-04-07T00:36:03;67055.38;;;10.81;100.00
44144;BME280;68165;51.920;4.492;2023-04-07T00:38:29;67042.56;;;10.70;100.00
44144;BME280;68165;51.920;4.492;2023-04-07T00:40:58;67039.19;;;10.67;100.00
44144;BME280;68165;51.920;4.492;2023-04-07T00:43:26;67032.34;;;10.58;100.00
44144;BME280;68165;51.920;4.492;2023-04-07T00:45:52;67021.91;;;10.51;100.00
44144;BME280;68165;51.920;4.492;2023-04-07T00:48:18;67020.78;;;10.50;100.00
44144;BME280;68165;51.920;4.492;2023-04-07T00:50:44;67016.72;;;10.44;100.00
44144;BME280;68165;51.920;4.492;2023-04-07T00:53:11;67012.25;;;10.40;100.00
44144;BME280;68165;51.920;4.492;2023-04-07T00:55:37;67007.03;;;10.40;100.00
44144;BME280;68165;51.920;4.492;2023-04-07T00:58:03;67006.31;;;10.37;100.00
44144;BME280;68165;51.920;4.492;2023-04-07T01:00:35;67003.50;;;10.34;100.00
44144;BME280;68165;51.920;4.492;2023-04-07T01:03:18;66994.59;;;10.26;100.00
44144;BME280;68165;51.920;4.492;2023-04-07T01:05:54;66992.94;;;10.25;100.00
44144;BME280;68165;51.920;4.492;2023-04-07T01:08:48;66986.38;;;10.21;100.00
44144;BME280;68165;51.920;4.492;2023-04-07T01:13:51;66976.00;;;10.07;100.00
44144;BME280;68165;51.920;4.492;2023-04-07T01:16:29;66980.47;;;10.11;100.00
44144;BME280;68165;51.920;4.492;2023-04-07T01:19:03;66967.63;;;9.99;100.00
44144;BME280;68165;51.920;4.492;2023-04-07T01:21:34;66969.47;;;10.03;100.00
44144;BME280;68165;51.920;4.492;2023-04-07T01:24:33;66973.38;;;10.07;100.00
44144;BME280;68165;51.920;4.492;2023-04-07T01:29:53;66972.09;;;10.03;100.00
44144;BME280;68165;51.920;4.492;2023-04-07T01:32:19;66974.31;;;10.05;100.00
44144;BME280;68165;51.920;4.492;2023-04-07T01:34:47;66976.72;;;10.10;100.00
44144;BME280;68165;51.920;4.492;2023-04-07T01:37:14;66974.47;;;10.08;100.00
44144;BME280;68165;51.920;4.492;2023-04-07T01:39:41;66985.47;;;10.15;100.00
44144;BME280;68165;51.920;4.492;2023-04-07T01:42:07;66987.31;;;10.19;100.00
44144;BME280;68165;51.920;4.492;2023-04-07T01:44:34;66988.44;;;10.20;100.00
44144;BME280;68165;51.920;4.492;2023-04-07T01:47:02;66976.34;;;10.12;100.00
44144;BME280;68165;51.920;4.492;2023-04-07T01:49:29;66985.66;;;10.18;100.00
44144;BME280;68165;51.920;4.492;2023-04-07T01:51:56;66982.28;;;10.15;100.00
44144;BME280;68165;51.920;4.492;2023-04-07T01:54:22;66978.00;;;10.13;100.00
44144;BME280;68165;51.920;4.492;2023-04-07T01:56:48;66978.41;;;10.11;100.00
44144;BME280;68165;51.920;4.492;2023-04-07T01:59:13;66978.97;;;10.12;100.00
44144;BME280;68165;51.920;4.492;2023-04-07T02:01:39;66966.69;;;10.01;100.00
44144;BME280;68165;51.920;4.492;2023-04-07T02:04:56;66975.03;;;10.08;100.00
44144;BME280;68165;51.920;4.492;2023-04-07T02:07:38;66970.22;;;10.06;100.00
44144;BME280;68165;51.920;4.492;2023-04-07T02:10:09;66973.94;;;10.07;100.00
44144;BME280;68165;51.920;4.492;2023-04-07T02:12:36;66967.22;;;10.01;100.00
44144;BME280;68165;51.920;4.492;2023-04-07T02:15:02;66976.72;;;10.10;100.00
44144;BME280;68165;51.920;4.492;2023-04-07T02:17:29;66979.13;;;10.14;100.00
44144;BME280;68165;51.920;4.492;2023-04-07T02:19:58;66986.22;;;10.18;100.00
44144;BME280;68165;51.920;4.492;2023-04-07T02:22:25;66994.44;;;10.23;100.00
44144;BME280;68165;51.920;4.492;2023-04-07T02:24:51;66997.38;;;10.29;100.00
44144;BME280;68165;51.920;4.492;2023-04-07T02:27:17;66994.59;;;10.26;100.00
44144;BME280;68165;51.920;4.492;2023-04-07T02:29:42;66977.84;;;10.11;100.00
44144;BME280;68165;51.920;4.492;2023-04-07T02:32:08;66997.38;;;10.29;100.00
44144;BME280;68165;51.920;4.492;2023-04-07T02:34:35;66998.31;;;10.27;100.00
44144;BME280;68165;51.920;4.492;2023-04-07T02:37:00;66999.25;;;10.26;100.00
44144;BME280;68165;51.920;4.492;2023-04-07T02:39:25;66995.69;;;10.27;100.00
44144;BME280;68165;51.920;4.492;2023-04-07T02:41:51;66998.31;;;10.27;100.00
44144;BME280;68165;51.920;4.492;2023-04-07T02:44:16;66992.19;;;10.21;100.00
44144;BME280;68165;51.920;4.492;2023-04-07T02:46:42;66991.63;;;10.21;100.00
44144;BME280;68165;51.920;4.492;2023-04-07T02:49:07;66992.19;;;10.21;100.00
44144;BME280;68165;51.920;4.492;2023-04-07T02:51:32;66993.31;;;10.22;100.00
44144;BME280;68165;51.920;4.492;2023-04-07T02:53:58;66992.94;;;10.25;100.00
44144;BME280;68165;51.920;4.492;2023-04-07T02:56:23;66995.13;;;10.27;100.00
44144;BME280;68165;51.920;4.492;2023-04-07T02:58:49;67004.22;;;10.37;100.00
44144;BME280;68165;51.920;4.492;2023-04-07T03:01:14;67005.75;;;10.36;100.00
44144;BME280;68165;51.920;4.492;2023-04-07T03:03:40;67015.59;;;10.43;100.00
44144;BME280;68165;51.920;4.492;2023-04-07T03:06:09;67018.56;;;10.48;100.00
44144;BME280;68165;51.920;4.492;2023-04-07T03:08:34;67026.78;;;10.53;100.00
44144;BME280;68165;51.920;4.492;2023-04-07T03:11:00;67030.84;;;10.59;100.00
44144;BME280;68165;51.920;4.492;2023-04-07T03:13:25;67034.59;;;10.60;100.00
44144;BME280;68165;51.920;4.492;2023-04-07T03:15:53;67036.41;;;10.64;100.00
44144;BME280;68165;51.920;4.492;2023-04-07T03:18:19;67041.44;;;10.69;100.00
44144;BME280;68165;51.920;4.492;2023-04-07T03:20:47;67034.59;;;10.60;100.00
44144;BME280;68165;51.920;4.492;2023-04-07T03:23:12;67034.75;;;10.62;100.00
44144;BME280;68165;51.920;4.492;2023-04-07T03:25:37;67039.75;;;10.67;100.00
44144;BME280;68165;51.920;4.492;2023-04-07T03:28:04;67047.97;;;10.72;100.00
44144;BME280;68165;51.920;4.492;2023-04-07T03:30:31;67048.50;;;10.73;100.00
44144;BME280;68165;51.920;4.492;2023-04-07T03:32:56;67042.56;;;10.70;100.00
44144;BME280;68165;51.920;4.492;2023-04-07T03:35:21;67044.22;;;10.71;100.00
44144;BME280;68165;51.920;4.492;2023-04-07T03:37:47;67044.78;;;10.72;100.00
44144;BME280;68165;51.920;4.492;2023-04-07T03:40:12;67047.41;;;10.72;100.00
44144;BME280;68165;51.920;4.492;2023-04-07T03:42:38;67060.81;;;10.84;100.00
44144;BME280;68165;51.920;4.492;2023-04-07T03:45:04;67053.69;;;10.80;100.00
44144;BME280;68165;51.920;4.492;2023-04-07T03:47:29;67063.56;;;10.86;100.00
44144;BME280;68165;51.920;4.492;2023-04-07T03:49:55;67062.63;;;10.88;100.00
44144;BME280;68165;51.920;4.492;2023-04-07T03:52:21;67068.03;;;10.90;100.00
44144;BME280;68165;51.920;4.492;2023-04-07T03:54:46;67063.19;;;10.88;100.00
44144;BME280;68165;51.920;4.492;2023-04-07T03:57:11;67055.94;;;10.82;100.00
44144;BME280;68165;51.920;4.492;2023-04-07T03:59:37;67059.69;;;10.83;100.00
44144;BME280;68165;51.920;4.492;2023-04-07T04:02:02;67050.94;;;10.77;100.00
44144;BME280;68165;51.920;4.492;2023-04-07T04:04:28;67049.25;;;10.76;100.00
44144;BME280;68165;51.920;4.492;2023-04-07T04:06:53;67047.97;;;10.72;100.00
44144;BME280;68165;51.920;4.492;2023-04-07T04:09:19;67039.19;;;10.67;100.00
44144;BME280;68165;51.920;4.492;2023-04-07T04:11:45;67036.97;;;10.64;100.00
44144;BME280;68165;51.920;4.492;2023-04-07T04:14:10;67033.06;;;10.61;100.00
44144;BME280;68165;51.920;4.492;2023-04-07T04:16:37;67033.06;;;10.61;100.00
44144;BME280;68165;51.920;4.492;2023-04-07T04:19:02;67028.59;;;10.57;100.00
44144;BME280;68165;51.920;4.492;2023-04-07T04:21:28;67025.66;;;10.52;100.00
44144;BME280;68165;51.920;4.492;2023-04-07T04:23:53;67024.16;;;10.53;100.00
44144;BME280;68165;51.920;4.492;2023-04-07T04:26:18;67026.38;;;10.55;100.00
44144;BME280;68165;51.920;4.492;2023-04-07T04:28:45;67022.47;;;10.51;100.00
44144;BME280;68165;51.920;4.492;2023-04-07T04:31:10;67024.16;;;10.53;100.00
44144;BME280;68165;51.920;4.492;2023-04-07T04:33:35;67025.81;;;10.54;100.00
44144;BME280;68165;51.920;4.492;2023-04-07T04:36:01;67030.09;;;10.56;100.00
44144;BME280;68165;51.920;4.492;2023-04-07T04:38:26;67031.22;;;10.57;100.00
44144;BME280;68165;51.920;4.492;2023-04-07T04:40:52;67024.72;;;10.53;100.00
44144;BME280;68165;51.920;4.492;2023-04-07T04:43:17;67028.59;;;10.57;100.00
44144;BME280;68165;51.920;4.492;2023-04-07T04:45:42;67026.78;;;10.53;100.00
44144;BME280;68165;51.920;4.492;2023-04-07T04:48:08;67028.03;;;10.56;100.00
44144;BME280;68165;51.920;4.492;2023-04-07T04:50:33;67028.59;;;10.57;100.00
44144;BME280;68165;51.920;4.492;2023-04-07T04:52:59;67033.78;;;10.64;100.00
44144;BME280;68165;51.920;4.492;2023-04-07T04:55:24;67036.81;;;10.62;100.00
44144;BME280;68165;51.920;4.492;2023-04-07T04:57:49;67042.78;;;10.65;100.00
44144;BME280;68165;51.920;4.492;2023-04-07T05:00:15;67046.13;;;10.68;100.00
44144;BME280;68165;51.920;4.492;2023-04-07T05:02:40;67039.19;;;10.67;100.00
44144;BME280;68165;51.920;4.492;2023-04-07T05:05:07;67044.22;;;10.71;100.00
44144;BME280;68165;51.920;4.492;2023-04-07T05:07:33;67047.56;;;10.74;100.00
44144;BME280;68165;51.920;4.492;2023-04-07T05:09:58;67047.56;;;10.74;100.00
44144;BME280;68165;51.920;4.492;2023-04-07T05:12:24;67045.34;;;10.72;100.00
44144;BME280;68165;51.920;4.492;2023-04-07T05:14:49;67049.97;;;10.79;100.00
44144;BME280;68165;51.920;4.492;2023-04-07T05:17:15;67050.38;;;10.77;100.00
44144;BME280;68165;51.920;4.492;2023-04-07T05:19:40;67060.25;;;10.83;100.00
44144;BME280;68165;51.920;4.492;2023-04-07T05:22:06;67055.38;;;10.81;100.00
44144;BME280;68165;51.920;4.492;2023-04-07T05:24:32;67061.34;;;10.84;100.00
44144;BME280;68165;51.920;4.492;2023-04-07T06:44:34;67191.03;;;12.04;100.00
44144;BME280;68165;51.920;4.492;2023-04-07T06:47:00;67187.84;;;12.04;100.00
44144;BME280;68165;51.920;4.492;2023-04-07T06:49:25;67193.84;;;12.07;100.00
44144;BME280;68165;51.920;4.492;2023-04-07T06:51:50;67200.53;;;12.13;100.00
44144;BME280;68165;51.920;4.492;2023-04-07T06:54:16;67200.31;;;12.17;100.00
44144;BME280;68165;51.920;4.492;2023-04-07T06:56:42;67200.91;;;12.11;100.00
44144;BME280;68165;51.920;4.492;2023-04-07T06:59:07;67197.16;;;12.10;100.00
44144;BME280;68165;51.920;4.492;2023-04-07T07:01:33;67204.28;;;12.14;100.00
44144;BME280;68165;51.920;4.492;2023-04-07T07:03:58;67199.41;;;12.12;100.00
44144;BME280;68165;51.920;4.492;2023-04-07T07:06:26;67200.16;;;12.15;100.00
44144;BME280;68165;51.920;4.492;2023-04-07T07:08:53;67202.78;;;12.15;100.00
44144;BME280;68165;51.920;4.492;2023-04-07T07:11:19;67200.22;;;12.08;100.00
44144;BME280;68165;51.920;4.492;2023-04-07T07:13:45;67190.16;;;11.99;100.00
44144;BME280;68165;51.920;4.492;2023-04-07T07:16:10;67171.09;;;11.89;100.00
44144;BME280;68165;51.920;4.492;2023-04-07T07:18:37;67189.59;;;11.98;100.00
44144;BME280;68165;51.920;4.492;2023-04-07T07:21:03;67192.38;;;12.01;100.00
44144;BME280;68165;51.920;4.492;2023-04-07T07:23:29;67163.69;;;11.79;100.00
44144;BME280;68165;51.920;4.492;2023-04-07T07:25:54;67167.75;;;11.85;100.00
44144;BME280;68165;51.920;4.492;2023-04-07T07:28:19;67190.47;;;12.04;100.00
44144;BME280;68165;51.920;4.492;2023-04-07T07:30:46;67193.28;;;12.06;100.00
44144;BME280;68165;51.920;4.492;2023-04-07T07:33:12;67194.94;;;12.08;100.00
44144;BME280;68165;51.920;4.492;2023-04-07T07:35:37;67188.63;;;12.00;100.00
44144;BME280;68165;51.920;4.492;2023-04-07T07:38:03;67194.94;;;12.08;100.00
44144;BME280;68165;51.920;4.492;2023-04-07T07:40:28;67197.16;;;12.10;100.00
44144;BME280;68165;51.920;4.492;2023-04-07T07:42:54;67204.84;;;12.14;100.00
44144;BME280;68165;51.920;4.492;2023-04-07T07:45:19;67218.41;;;12.29;100.00
44144;BME280;68165;51.920;4.492;2023-04-07T07:47:44;67228.47;;;12.38;100.00
44144;BME280;68165;51.920;4.492;2023-04-07T07:50:10;67218.41;;;12.29;100.00
44144;BME280;68165;51.920;4.492;2023-04-07T07:52:35;67231.09;;;12.38;100.00
44144;BME280;68165;51.920;4.492;2023-04-07T07:55:01;67230.13;;;12.40;100.00
44144;BME280;68165;51.920;4.492;2023-04-07T07:57:27;67232.94;;;12.42;100.00
44144;BME280;68165;51.920;4.492;2023-04-07T07:59:55;67245.22;;;12.53;99.72
44144;BME280;68165;51.920;4.492;2023-04-07T08:02:20;67246.72;;;12.52;99.73
44144;BME280;68165;51.920;4.492;2023-04-07T08:04:46;67269.81;;;12.76;99.63
44144;BME280;68165;51.920;4.492;2023-04-07T08:07:11;67274.28;;;12.80;98.75
44144;BME280;68165;51.920;4.492;2023-04-07T08:09:37;67293.28;;;12.97;97.56
44144;BME280;68165;51.920;4.492;2023-04-07T08:12:02;67278.75;;;12.84;96.41
44144;BME280;68165;51.920;4.492;2023-04-07T08:14:28;67294.41;;;12.98;96.06
44144;BME280;68165;51.920;4.492;2023-04-07T08:16:54;67301.13;;;13.04;95.76
44144;BME280;68165;51.920;4.492;2023-04-07T08:19:19;67288.47;;;12.88;96.02
44144;BME280;68165;51.920;4.492;2023-04-07T08:21:45;67283.78;;;12.88;96.70
44144;BME280;68165;51.920;4.492;2023-04-07T08:24:10;67283.06;;;12.85;97.08
44144;BME280;68165;51.920;4.492;2023-04-07T08:26:37;67256.78;;;12.61;97.15
44144;BME280;68165;51.920;4.492;2023-04-07T08:29:04;67262.00;;;12.68;97.85
44144;BME280;68165;51.920;4.492;2023-04-07T08:31:29;67243.53;;;12.52;97.83
44144;BME280;68165;51.920;4.492;2023-04-07T08:33:56;67248.97;;;12.54;98.68
44144;BME280;68165;51.920;4.492;2023-04-07T08:36:26;67254.56;;;12.59;99.24
44144;BME280;68165;51.920;4.492;2023-04-07T08:38:52;67261.81;;;12.66;99.66
44144;BME280;68165;51.920;4.492;2023-04-07T08:41:28;67266.06;;;12.75;99.85
44144;BME280;68165;51.920;4.492;2023-04-07T08:43:56;67261.03;;;12.70;100.00
44144;BME280;68165;51.920;4.492;2023-04-07T08:46:24;67264.63;;;12.68;99.96
44144;BME280;68165;51.920;4.492;2023-04-07T08:48:51;67262.38;;;12.66;99.35
44144;BME280;68165;51.920;4.492;2023-04-07T08:51:26;67262.75;;;12.64;99.15
44144;BME280;68165;51.920;4.492;2023-04-07T08:53:53;67257.91;;;12.62;98.18
44144;BME280;68165;51.920;4.492;2023-04-07T08:56:19;67256.38;;;12.63;98.22
44144;BME280;68165;51.920;4.492;2023-04-07T08:58:47;67254.41;;;12.57;97.70
44144;BME280;68165;51.920;4.492;2023-04-07T09:01:13;67265.34;;;12.72;97.57
44144;BME280;68165;51.920;4.492;2023-04-07T09:03:44;67275.63;;;12.76;97.47
44144;BME280;68165;51.920;4.492;2023-04-07T09:06:10;67272.03;;;12.78;96.78
44144;BME280;68165;51.920;4.492;2023-04-07T09:08:36;67276.91;;;12.80;97.57
44144;BME280;68165;51.920;4.492;2023-04-07T09:11:02;67289.91;;;12.94;97.58
44144;BME280;68165;51.920;4.492;2023-04-07T09:13:27;67281.56;;;12.86;97.66
44144;BME280;68165;51.920;4.492;2023-04-07T09:15:53;67286.56;;;12.91;97.72
44144;BME280;68165;51.920;4.492;2023-04-07T09:18:18;67293.28;;;12.97;97.54
44144;BME280;68165;51.920;4.492;2023-04-07T09:20:58;67292.72;;;12.96;97.29
44144;BME280;68165;51.920;4.492;2023-04-07T09:23:31;67297.19;;;13.00;96.98
44144;BME280;68165;51.920;4.492;2023-04-07T09:26:20;67301.25;;;13.06;96.32
44144;BME280;68165;51.920;4.492;2023-04-07T09:28:48;67303.91;;;13.06;96.38
44144;BME280;68165;51.920;4.492;2023-04-07T09:31:17;67310.06;;;13.12;95.91
44144;BME280;68165;51.920;4.492;2023-04-07T09:33:45;67316.22;;;13.18;95.79
44144;BME280;68165;51.920;4.492;2023-04-07T09:36:11;67313.44;;;13.15;95.68
44144;BME280;68165;51.920;4.492;2023-04-07T09:38:38;67321.25;;;13.22;95.03
44144;BME280;68165;51.920;4.492;2023-04-07T09:41:08;67322.69;;;13.28;94.59
44144;BME280;68165;51.920;4.492;2023-04-07T09:43:35;67329.47;;;13.27;94.45
44144;BME280;68165;51.920;4.492;2023-04-07T09:46:16;67340.09;;;13.37;94.55
44144;BME280;68165;51.920;4.492;2023-04-07T09:48:44;67346.97;;;13.45;94.28
44144;BME280;68165;51.920;4.492;2023-04-07T09:51:10;67354.25;;;13.52;93.37
44144;BME280;68165;51.920;4.492;2023-04-07T09:53:48;67356.31;;;13.52;93.08
44144;BME280;68165;51.920;4.492;2023-04-07T09:56:16;67346.97;;;13.45;93.19
44144;BME280;68165;51.920;4.492;2023-04-07T09:58:44;67342.34;;;13.39;93.03
44144;BME280;68165;51.920;4.492;2023-04-07T10:01:10;67334.69;;;13.34;93.40
44144;BME280;68165;51.920;4.492;2023-04-07T10:03:36;67334.91;;;13.30;93.36
44144;BME280;68165;51.920;4.492;2023-04-07T10:06:03;67314.94;;;13.14;93.24
44144;BME280;68165;51.920;4.492;2023-04-07T10:08:32;67326.84;;;13.27;92.75
44144;BME280;68165;51.920;4.492;2023-04-07T10:11:00;67322.91;;;13.24;92.50
44144;BME280;68165;51.920;4.492;2023-04-07T10:13:33;67316.94;;;13.21;92.46
44144;BME280;68165;51.920;4.492;2023-04-07T10:16:02;67322.03;;;13.18;92.10
44144;BME280;68165;51.920;4.492;2023-04-07T10:18:30;67315.66;;;13.17;92.47
44144;BME280;68165;51.920;4.492;2023-04-07T10:20:56;67325.72;;;13.26;92.17
44144;BME280;68165;51.920;4.492;2023-04-07T10:23:31;67332.81;;;13.30;92.16
44144;BME280;68165;51.920;4.492;2023-04-07T10:26:01;67327.72;;;13.33;92.47
44144;BME280;68165;51.920;4.492;2023-04-07T10:28:29;67333.16;;;13.35;92.41
44144;BME280;68165;51.920;4.492;2023-04-07T10:30:56;67331.47;;;13.34;92.58
44144;BME280;68165;51.920;4.492;2023-04-07T10:33:48;67335.22;;;13.35;92.59
44144;BME280;68165;51.920;4.492;2023-04-07T10:36:14;67333.00;;;13.33;92.72
44144;BME280;68165;51.920;4.492;2023-04-07T10:38:39;67340.25;;;13.39;92.53
44144;BME280;68165;51.920;4.492;2023-04-07T10:41:35;67348.25;;;13.49;92.49
44144;BME280;68165;51.920;4.492;2023-04-07T10:44:02;67350.72;;;13.46;92.55
44144;BME280;68165;51.920;4.492;2023-04-07T10:47:09;67350.31;;;13.48;92.45
44144;BME280;68165;51.920;4.492;2023-04-07T10:49:34;67348.72;;;13.40;93.23
44144;BME280;68165;51.920;4.492;2023-04-07T10:54:39;67306.84;;;13.12;93.91
44144;BME280;68165;51.920;4.492;2023-04-07T10:57:09;67309.47;;;13.12;93.82
44144;BME280;68165;51.920;4.492;2023-04-07T10:59:40;67311.75;;;13.14;94.60
44144;BME280;68165;51.920;4.492;2023-04-07T11:04:44;67321.66;;;13.20;94.62
44144;BME280;68165;51.920;4.492;2023-04-07T11:07:12;67336.19;;;13.33;93.67
44144;BME280;68165;51.920;4.492;2023-04-07T11:09:39;67355.91;;;13.54;93.37
44144;BME280;68165;51.920;4.492;2023-04-07T11:12:07;67365.44;;;13.62;92.78
44144;BME280;68165;51.920;4.492;2023-04-07T11:14:34;67374.38;;;13.70;92.55
44144;BME280;68165;51.920;4.492;2023-04-07T11:17:02;67382.75;;;13.78;91.93
44144;BME280;68165;51.920;4.492;2023-04-07T11:19:28;67390.59;;;13.85;91.25
44144;BME280;68165;51.920;4.492;2023-04-07T11:22:13;67404.72;;;14.00;89.62
44144;BME280;68165;51.920;4.492;2023-04-07T11:24:39;67409.03;;;14.02;88.56
44144;BME280;68165;51.920;4.492;2023-04-07T11:27:16;67423.41;;;14.12;88.78
44144;BME280;68165;51.920;4.492;2023-04-07T11:29:41;67426.41;;;14.17;88.81
44144;BME280;68165;51.920;4.492;2023-04-07T11:32:07;67429.59;;;14.18;88.78
44144;BME280;68165;51.920;4.492;2023-04-07T11:34:36;67417.13;;;14.04;88.94
44144;BME280;68165;51.920;4.492;2023-04-07T11:37:21;67405.28;;;14.01;89.84
44144;BME280;68165;51.920;4.492;2023-04-07T11:39:54;67392.09;;;13.84;89.94
44144;BME280;68165;51.920;4.492;2023-04-07T11:42:38;67395.63;;;13.89;89.94
44144;BME280;68165;51.920;4.492;2023-04-07T11:45:05;67404.41;;;13.95;89.66
44144;BME280;68165;51.920;4.492;2023-04-07T11:47:38;67405.69;;;13.99;89.58
44144;BME280;68165;51.920;4.492;2023-04-07T11:50:05;67415.75;;;14.08;89.01
44144;BME280;68165;51.920;4.492;2023-04-07T11:53:00;67431.81;;;14.20;88.86
44144;BME280;68165;51.920;4.492;2023-04-07T11:55:26;67427.50;;;14.18;89.11
44144;BME280;68165;51.920;4.492;2023-04-07T11:57:51;67420.47;;;14.07;88.45
44144;BME280;68165;51.920;4.492;2023-04-07T12:00:18;67414.63;;;14.07;88.17
44144;BME280;68165;51.920;4.492;2023-04-07T12:02:44;67416.63;;;14.13;88.12
44144;BME280;68165;51.920;4.492;2023-04-07T12:05:09;67416.50;;;14.11;88.24
44144;BME280;68165;51.920;4.492;2023-04-07T12:07:38;67420.25;;;14.12;87.92
44144;BME280;68165;51.920;4.492;2023-04-07T12:10:22;67431.03;;;14.24;87.73
44144;BME280;68165;51.920;4.492;2023-04-07T12:12:50;67432.00;;;14.22;87.28
44144;BME280;68165;51.920;4.492;2023-04-07T12:15:16;67439.66;;;14.27;87.23
44144;BME280;68165;51.920;4.492;2023-04-07T12:17:46;67434.22;;;14.24;86.68
44144;BME280;68165;51.920;4.492;2023-04-07T12:20:12;67425.66;;;14.14;86.63
44144;BME280;68165;51.920;4.492;2023-04-07T12:22:39;67417.44;;;14.09;86.84
44144;BME280;68165;51.920;4.492;2023-04-07T12:25:05;67411.28;;;14.04;86.70
44144;BME280;68165;51.920;4.492;2023-04-07T12:27:31;67417.44;;;14.09;86.46
44144;BME280;68165;51.920;4.492;2023-04-07T12:29:57;67417.81;;;14.07;86.62
44144;BME280;68165;51.920;4.492;2023-04-07T12:32:22;67434.78;;;14.25;85.28
44144;BME280;68165;51.920;4.492;2023-04-07T12:34:47;67440.38;;;14.30;84.87
44144;BME280;68165;51.920;4.492;2023-04-07T12:37:13;67422.47;;;14.14;84.49
44144;BME280;68165;51.920;4.492;2023-04-07T12:39:38;67421.69;;;14.18;84.33
44144;BME280;68165;51.920;4.492;2023-04-07T12:42:04;67432.00;;;14.22;84.70
44144;BME280;68165;51.920;4.492;2023-04-07T12:44:30;67439.81;;;14.29;82.62
44144;BME280;68165;51.920;4.492;2023-04-07T12:46:56;67438.69;;;14.28;82.53
44144;BME280;68165;51.920;4.492;2023-04-07T12:49:21;67429.75;;;14.20;82.16
44144;BME280;68165;51.920;4.492;2023-04-07T12:51:47;67431.44;;;14.22;82.69
44144;BME280;68165;51.920;4.492;2023-04-07T12:54:13;67437.91;;;14.32;82.55
44144;BME280;68165;51.920;4.492;2023-04-07T12:56:39;67450.28;;;14.37;82.35
44144;BME280;68165;51.920;4.492;2023-04-07T12:59:06;67439.03;;;14.34;82.06
44144;BME280;68165;51.920;4.492;2023-04-07T13:01:32;67450.28;;;14.37;81.95
44144;BME280;68165;51.920;4.492;2023-04-07T13:03:59;67453.28;;;14.42;81.62
44144;BME280;68165;51.920;4.492;2023-04-07T13:06:25;67446.53;;;14.36;81.22
44144;BME280;68165;51.920;4.492;2023-04-07T13:08:52;67447.50;;;14.34;80.92
44144;BME280;68165;51.920;4.492;2023-04-07T13:11:18;67448.41;;;14.40;81.28
44144;BME280;68165;51.920;4.492;2023-04-07T13:13:43;67456.63;;;14.45;81.07
44144;BME280;68165;51.920;4.492;2023-04-07T13:16:08;67454.78;;;14.41;80.90
44144;BME280;68165;51.920;4.492;2023-04-07T13:18:34;67460.53;;;14.48;81.23
44144;BME280;68165;51.920;4.492;2023-04-07T13:21:01;67466.69;;;14.54;81.29
44144;BME280;68165;51.920;4.492;2023-04-07T13:23:26;67480.13;;;14.66;80.48
44144;BME280;68165;51.920;4.492;2023-04-07T13:25:52;67489.09;;;14.74;80.56
44144;BME280;68165;51.920;4.492;2023-04-07T13:28:17;67479.59;;;14.65;80.33
44144;BME280;68165;51.920;4.492;2023-04-07T13:30:45;67486.84;;;14.72;80.81
44144;BME280;68165;51.920;4.492;2023-04-07T13:33:11;67489.66;;;14.75;80.51
44144;BME280;68165;51.920;4.492;2023-04-07T13:35:36;67485.19;;;14.70;80.46
44144;BME280;68165;51.920;4.492;2023-04-07T13:38:02;67479.91;;;14.70;80.44
44144;BME280;68165;51.920;4.492;2023-04-07T13:40:28;67477.91;;;14.64;80.51
44144;BME280;68165;51.920;4.492;2023-04-07T13:42:54;67472.88;;;14.59;80.91
44144;BME280;68165;51.920;4.492;2023-04-07T13:45:21;67464.47;;;14.52;81.11
44144;BME280;68165;51.920;4.492;2023-04-07T13:47:46;67463.59;;;14.46;81.76
44144;BME280;68165;51.920;4.492;2023-04-07T13:50:11;67467.25;;;14.54;82.15
44144;BME280;68165;51.920;4.492;2023-04-07T13:52:37;67471.31;;;14.60;82.27
44144;BME280;68165;51.920;4.492;2023-04-07T13:55:03;67482.38;;;14.68;81.89
44144;BME280;68165;51.920;4.492;2023-04-07T13:57:30;67484.06;;;14.69;81.69
44144;BME280;68165;51.920;4.492;2023-04-07T13:59:55;67485.19;;;14.70;81.79
44144;BME280;68165;51.920;4.492;2023-04-07T14:02:20;67480.13;;;14.66;82.32
44144;BME280;68165;51.920;4.492;2023-04-07T14:04:46;67476.44;;;14.58;82.52
44144;BME280;68165;51.920;4.492;2023-04-07T14:07:12;67461.09;;;14.49;82.78
44144;BME280;68165;51.920;4.492;2023-04-07T14:09:38;67461.09;;;14.49;82.97
44144;BME280;68165;51.920;4.492;2023-04-07T14:12:04;67450.47;;;14.39;83.21
44144;BME280;68165;51.920;4.492;2023-04-07T14:14:30;67449.19;;;14.36;82.94
44144;BME280;68165;51.920;4.492;2023-04-07T14:16:58;67449.91;;;14.39;83.33
44144;BME280;68165;51.920;4.492;2023-04-07T14:19:24;67443.50;;;14.38;83.42
44144;BME280;68165;51.920;4.492;2023-04-07T14:21:50;67438.69;;;14.28;83.80
44144;BME280;68165;51.920;4.492;2023-04-07T14:24:17;67436.31;;;14.24;84.14
44144;BME280;68165;51.920;4.492;2023-04-07T14:26:43;67430.53;;;14.16;84.82